createdAt,value
2018-03-28T00:01:37.390Z,88.83
2018-03-28T00:04:05.658Z,89.37
2018-03-28T00:06:33.931Z,89.94
2018-03-28T00:09:02.193Z,90.65
2018-03-28T00:11:30.526Z,91.37
2018-03-28T00:13:58.825Z,91.91
2018-03-28T00:16:27.897Z,93.12
2018-03-28T00:18:57.077Z,93.32
2018-03-28T00:21:25.485Z,93.77
2018-03-28T00:23:54.224Z,93.84
2018-03-28T00:26:22.501Z,93.47
2018-03-28T00:28:50.782Z,93.11
2018-03-28T00:31:19.028Z,93.10
2018-03-28T00:33:47.302Z,92.61
2018-03-28T00:36:16.320Z,92.65
2018-03-28T00:38:44.610Z,92.25
2018-03-28T00:41:12.908Z,92.41
2018-03-28T00:43:41.280Z,92.73
2018-03-28T00:46:10.400Z,92.74
2018-03-28T00:48:39.408Z,92.90
2018-03-28T00:51:26.297Z,92.16
2018-03-28T00:53:55.358Z,92.21
2018-03-28T00:56:23.749Z,91.66
2018-03-28T00:58:52.014Z,91.85
2018-03-28T01:01:20.269Z,91.83
2018-03-28T01:03:48.532Z,91.55
2018-03-28T01:06:23.110Z,90.78
2018-03-28T01:08:52.137Z,90.46
2018-03-28T01:11:20.401Z,90.54
2018-03-28T01:13:49.457Z,90.10
2018-03-28T01:16:17.698Z,90.11
2018-03-28T01:18:46.764Z,90.26
2018-03-28T01:21:15.021Z,90.56
2018-03-28T01:23:43.358Z,90.65
2018-03-28T01:26:11.617Z,90.26
2018-03-28T01:28:39.891Z,91.05
2018-03-28T01:31:08.142Z,90.67
2018-03-28T01:33:36.406Z,91.79
2018-03-28T01:36:04.657Z,91.85
2018-03-28T01:38:32.911Z,92.02
2018-03-28T01:41:01.165Z,91.92
2018-03-28T01:43:29.497Z,91.54
2018-03-28T01:45:58.597Z,91.56
2018-03-28T01:48:27.648Z,91.11
2018-03-28T01:50:56.006Z,91.00
2018-03-28T01:53:24.366Z,90.98
2018-03-28T01:55:52.630Z,90.36
2018-03-28T01:58:20.935Z,90.62
2018-03-28T02:00:49.211Z,91.49
2018-03-28T02:03:17.465Z,91.21
2018-03-28T02:05:45.740Z,91.60
2018-03-28T02:08:14.859Z,91.66
2018-03-28T02:10:43.193Z,91.71
2018-03-28T02:13:12.637Z,92.02
2018-03-28T02:15:40.929Z,91.81
2018-03-28T02:18:09.179Z,91.89
2018-03-28T02:20:37.468Z,91.57
2018-03-28T02:23:05.725Z,91.96
2018-03-28T02:25:33.994Z,91.93
2018-03-28T02:28:02.256Z,91.71
2018-03-28T02:30:30.550Z,92.35
2018-03-28T02:32:58.832Z,92.58
2018-03-28T02:35:27.148Z,92.32
2018-03-28T02:37:56.356Z,92.59
2018-03-28T02:40:25.968Z,92.80
2018-03-28T02:42:55.049Z,92.29
2018-03-28T02:45:23.348Z,92.71
2018-03-28T02:47:51.597Z,92.56
2018-03-28T02:50:19.900Z,92.24
2018-03-28T02:52:48.145Z,92.19
2018-03-28T02:55:16.417Z,92.05
2018-03-28T02:57:44.710Z,91.69
2018-03-28T03:00:13.030Z,92.61
2018-03-28T03:02:41.320Z,93.31
2018-03-28T03:05:10.352Z,93.78
2018-03-28T03:07:38.628Z,93.24
2018-03-28T03:10:06.894Z,93.41
2018-03-28T03:12:35.148Z,93.04
2018-03-28T03:15:03.425Z,93.09
2018-03-28T03:17:31.684Z,92.90
2018-03-28T03:19:59.991Z,92.51
2018-03-28T03:22:28.390Z,92.41
2018-03-28T03:24:56.885Z,92.85
2018-03-28T03:27:25.197Z,93.13
2018-03-28T03:29:54.405Z,93.34
2018-03-28T03:32:22.679Z,93.74
2018-03-28T03:34:50.934Z,93.92
2018-03-28T03:37:20.042Z,94.18
2018-03-28T03:39:48.299Z,94.24
2018-03-28T03:42:16.556Z,94.32
2018-03-28T03:44:44.832Z,94.29
2018-03-28T03:47:13.102Z,93.95
2018-03-28T03:49:41.383Z,94.01
2018-03-28T03:52:09.656Z,93.50
2018-03-28T03:54:38.677Z,93.72
2018-03-28T03:57:07.703Z,93.03
2018-03-28T03:59:35.963Z,93.05
2018-03-28T04:02:05.098Z,93.11
2018-03-28T04:04:33.449Z,93.24
2018-03-28T04:07:01.776Z,93.45
2018-03-28T04:09:30.087Z,93.33
2018-03-28T04:11:58.439Z,93.14
2018-03-28T04:14:27.632Z,92.92
2018-03-28T04:16:55.932Z,92.60
2018-03-28T04:19:25.092Z,92.34
2018-03-28T04:21:53.377Z,92.81
2018-03-28T04:24:21.640Z,92.82
2018-03-28T04:26:49.948Z,93.46
2018-03-28T04:29:18.202Z,93.81
2018-03-28T04:31:47.240Z,93.78
2018-03-28T04:34:15.513Z,93.50
2018-03-28T04:36:43.765Z,94.14
2018-03-28T04:39:12.045Z,94.65
2018-03-28T04:41:40.300Z,94.55
2018-03-28T04:44:08.571Z,94.07
2018-03-28T04:46:36.850Z,93.73
2018-03-28T04:49:06.464Z,93.28
2018-03-28T04:51:35.468Z,92.52
2018-03-28T04:54:05.088Z,93.11
2018-03-28T04:56:34.108Z,92.25
2018-03-28T04:59:03.518Z,92.33
2018-03-28T05:01:32.544Z,92.10
2018-03-28T05:04:00.820Z,91.13
2018-03-28T05:06:29.926Z,90.37
2018-03-28T05:08:59.017Z,90.23
2018-03-28T05:11:28.097Z,89.87
2018-03-28T05:13:56.506Z,89.31
2018-03-28T05:16:24.805Z,87.97
2018-03-28T05:18:53.118Z,88.13
2018-03-28T05:21:21.428Z,87.74
2018-03-28T05:23:49.695Z,85.87
2018-03-28T05:26:18.724Z,85.63
2018-03-28T05:28:46.980Z,84.70
2018-03-28T05:31:16.014Z,85.29
2018-03-28T05:33:44.304Z,84.69
2018-03-28T05:36:12.544Z,84.11
2018-03-28T05:38:40.812Z,83.62
2018-03-28T05:41:09.065Z,83.77
2018-03-28T05:43:37.336Z,83.59
2018-03-28T05:46:05.592Z,83.34
2018-03-28T05:48:33.840Z,83.18
2018-03-28T05:51:02.104Z,82.92
2018-03-28T05:53:31.151Z,82.71
2018-03-28T05:55:59.484Z,85.87
2018-03-28T05:58:27.779Z,80.30
2018-03-28T06:00:56.976Z,79.54
2018-03-28T06:03:25.355Z,79.90
2018-03-28T06:05:54.613Z,80.60
2018-03-28T06:08:22.869Z,80.14
2018-03-28T06:10:51.179Z,80.21
2018-03-28T06:13:20.568Z,79.17
2018-03-28T06:15:48.959Z,78.87
2018-03-28T06:18:17.255Z,79.52
2018-03-28T06:20:45.529Z,79.88
2018-03-28T06:23:13.783Z,79.20
2018-03-28T06:25:42.065Z,79.41
2018-03-28T06:28:10.336Z,79.70
2018-03-28T06:30:39.415Z,79.74
2018-03-28T06:33:08.778Z,79.82
2018-03-28T06:35:37.049Z,79.77
2018-03-28T06:38:06.076Z,79.01
2018-03-28T06:40:34.350Z,78.95
2018-03-28T06:43:03.369Z,78.89
2018-03-28T06:45:31.729Z,77.69
2018-03-28T06:48:00.770Z,78.34
2018-03-28T06:50:29.073Z,77.61
2018-03-28T06:52:57.432Z,76.80
2018-03-28T06:57:59.464Z,75.04
2018-03-28T07:00:27.773Z,74.45
2018-03-28T07:02:56.098Z,73.65
2018-03-28T07:05:24.402Z,72.72
2018-03-28T07:07:53.445Z,73.55
2018-03-28T07:10:21.746Z,74.24
2018-03-28T07:12:50.013Z,73.75
2018-03-28T07:15:18.303Z,74.33
2018-03-28T07:17:46.582Z,75.34
2018-03-28T07:20:14.877Z,74.79
2018-03-28T07:22:43.145Z,72.89
2018-03-28T07:25:12.540Z,72.51
2018-03-28T07:27:40.821Z,71.81
2018-03-28T07:30:09.072Z,72.70
2018-03-28T07:32:37.424Z,73.18
2018-03-28T07:35:05.672Z,73.70
2018-03-28T07:37:33.948Z,72.88
2018-03-28T07:40:02.230Z,73.60
2018-03-28T07:42:30.515Z,72.89
2018-03-28T07:44:58.949Z,72.58
2018-03-28T07:47:27.353Z,73.51
2018-03-28T07:49:55.640Z,72.12
2018-03-28T07:52:25.464Z,71.71
2018-03-28T07:54:53.744Z,71.52
2018-03-28T07:57:22.904Z,73.29
2018-03-28T07:59:51.202Z,71.91
2018-03-28T08:02:19.492Z,72.89
2018-03-28T08:04:47.772Z,74.44
2018-03-28T08:07:16.045Z,68.83
2018-03-28T08:09:45.068Z,70.75
2018-03-28T08:12:13.363Z,70.97
2018-03-28T08:14:41.652Z,72.21
2018-03-28T08:17:09.955Z,73.18
2018-03-28T08:19:38.220Z,72.78
2018-03-28T08:22:06.494Z,73.35
2018-03-28T08:24:35.726Z,74.08
2018-03-28T08:27:04.020Z,74.49
2018-03-28T08:29:32.285Z,73.88
2018-03-28T08:32:01.340Z,73.98
2018-03-28T08:34:29.718Z,74.20
2018-03-28T08:36:58.053Z,74.19
2018-03-28T08:39:26.404Z,75.72
2018-03-28T08:41:54.844Z,75.07
2018-03-28T08:44:23.220Z,74.63
2018-03-28T08:46:52.219Z,74.37
2018-03-28T08:49:20.497Z,74.46
2018-03-28T08:51:48.872Z,73.65
2018-03-28T08:54:18.382Z,72.70
2018-03-28T08:56:48.371Z,72.41
2018-03-28T08:59:16.685Z,72.16
2018-03-28T09:01:45.756Z,70.97
2018-03-28T09:04:14.074Z,70.58
2018-03-28T09:06:43.135Z,71.96
2018-03-28T09:09:12.190Z,72.29
2018-03-28T09:11:41.213Z,72.69
2018-03-28T09:14:10.234Z,72.16
2018-03-28T09:16:38.491Z,71.55
2018-03-28T09:19:07.522Z,71.06
2018-03-28T09:21:35.778Z,72.67
2018-03-28T09:24:04.074Z,73.73
2018-03-28T09:26:32.331Z,75.53
2018-03-28T09:29:00.662Z,75.09
2018-03-28T09:31:30.267Z,73.08
2018-03-28T09:33:58.535Z,70.86
2018-03-28T09:36:27.578Z,70.46
2018-03-28T09:38:56.676Z,68.81
2018-03-28T09:41:24.992Z,70.91
2018-03-28T09:43:54.817Z,70.79
2018-03-28T09:46:23.115Z,67.08
2018-03-28T09:48:52.241Z,66.31
2018-03-28T09:51:21.276Z,65.95
2018-03-28T09:53:49.563Z,60.42
2018-03-28T09:56:17.930Z,61.80
2018-03-28T09:58:46.232Z,60.01
2018-03-28T10:01:20.070Z,61.48
2018-03-28T10:03:50.135Z,60.72
2018-03-28T10:06:19.363Z,54.01
2018-03-28T10:08:48.698Z,50.47
2018-03-28T10:11:16.774Z,50.01
2018-03-28T10:13:45.181Z,49.12
2018-03-28T10:16:13.448Z,50.83
2018-03-28T10:18:41.713Z,50.72
2018-03-28T10:21:10.797Z,50.12
2018-03-28T10:23:39.148Z,49.72
2018-03-28T10:26:07.436Z,47.63
2018-03-28T10:28:35.702Z,48.96
2018-03-28T10:31:05.484Z,48.67
2018-03-28T10:33:33.755Z,47.00
2018-03-28T10:36:02.055Z,47.55
2018-03-28T10:38:30.414Z,46.44
2018-03-28T10:41:00.101Z,46.04
2018-03-28T10:43:29.158Z,46.20
2018-03-28T10:45:57.505Z,45.58
2018-03-28T10:48:25.847Z,46.24
2018-03-28T10:50:54.155Z,46.03
2018-03-28T10:53:22.420Z,47.06
2018-03-28T10:55:50.795Z,47.18
2018-03-28T10:58:19.084Z,47.08
2018-03-28T11:00:47.430Z,46.55
2018-03-28T11:03:15.730Z,47.95
2018-03-28T11:05:44.800Z,49.17
2018-03-28T11:08:13.057Z,48.49
2018-03-28T11:10:41.400Z,48.88
2018-03-28T11:13:09.861Z,50.39
2018-03-28T11:15:38.270Z,49.71
2018-03-28T11:18:06.628Z,50.61
2018-03-28T11:20:34.916Z,52.15
2018-03-28T11:23:03.176Z,52.56
2018-03-28T11:25:31.483Z,52.39
2018-03-28T11:27:59.802Z,51.07
2018-03-28T11:30:28.259Z,51.87
2018-03-28T11:32:57.340Z,51.88
2018-03-28T11:35:26.830Z,52.12
2018-03-28T11:37:55.256Z,52.25
2018-03-28T11:40:24.318Z,52.59
2018-03-28T11:42:52.588Z,53.08
2018-03-28T11:45:20.881Z,54.30
2018-03-28T11:47:49.208Z,54.41
2018-03-28T11:50:17.500Z,54.86
2018-03-28T11:52:45.787Z,55.50
2018-03-28T11:55:14.061Z,54.37
2018-03-28T11:57:42.449Z,54.53
2018-03-28T12:00:10.735Z,53.39
2018-03-28T12:02:39.012Z,53.28
2018-03-28T12:05:07.292Z,54.86
2018-03-28T12:07:35.588Z,54.09
2018-03-28T12:10:03.964Z,55.57
2018-03-28T12:12:32.241Z,56.06
2018-03-28T12:15:01.315Z,55.45
2018-03-28T12:17:29.631Z,55.86
2018-03-28T12:19:58.715Z,55.65
2018-03-28T12:22:27.075Z,55.12
2018-03-28T12:24:55.392Z,56.25
2018-03-28T12:27:24.483Z,56.84
2018-03-28T12:29:52.796Z,57.04
2018-03-28T12:32:21.082Z,58.27
2018-03-28T12:34:49.352Z,58.97
2018-03-28T12:37:17.676Z,59.30
2018-03-28T12:39:45.964Z,58.58
2018-03-28T12:42:14.275Z,59.27
2018-03-28T12:44:42.587Z,59.67
2018-03-28T12:47:10.887Z,58.84
2018-03-28T12:49:40.058Z,59.29
2018-03-28T12:52:08.311Z,58.33
2018-03-28T12:54:36.595Z,58.18
2018-03-28T12:57:04.887Z,58.64
2018-03-28T12:59:33.166Z,58.04
2018-03-28T13:02:01.452Z,58.66
2018-03-28T13:04:29.760Z,57.73
2018-03-28T13:06:58.041Z,57.96
2018-03-28T13:09:26.442Z,58.38
2018-03-28T13:11:54.798Z,57.85
2018-03-28T13:14:23.110Z,58.07
2018-03-28T13:16:51.404Z,58.03
2018-03-28T13:19:19.704Z,58.04
2018-03-28T13:21:47.982Z,59.01
2018-03-28T13:24:16.312Z,58.69
2018-03-28T13:26:45.384Z,59.77
2018-03-28T13:29:13.680Z,59.54
2018-03-28T13:31:41.958Z,60.06
2018-03-28T13:34:10.231Z,59.09
2018-03-28T13:36:39.293Z,59.89
2018-03-28T13:39:07.576Z,59.43
2018-03-28T13:41:35.852Z,60.21
2018-03-28T13:44:04.145Z,62.36
2018-03-28T13:46:32.419Z,62.87
2018-03-28T13:49:00.742Z,65.28
2018-03-28T13:51:30.174Z,67.15
2018-03-28T13:53:59.298Z,68.07
2018-03-28T13:56:27.598Z,68.50
2018-03-28T13:58:55.941Z,69.51
2018-03-28T14:01:25.470Z,71.71
2018-03-28T14:03:54.594Z,72.91
2018-03-28T14:06:23.768Z,73.08
2018-03-28T14:08:52.097Z,74.62
2018-03-28T14:11:20.365Z,74.74
2018-03-28T14:13:48.657Z,75.95
2018-03-28T14:16:17.714Z,77.17
2018-03-28T14:18:45.999Z,78.20
2018-03-28T14:21:14.364Z,76.51
2018-03-28T14:23:42.677Z,76.92
2018-03-28T14:26:10.971Z,78.81
2018-03-28T14:28:39.231Z,78.00
2018-03-28T14:31:08.301Z,79.82
2018-03-28T14:33:36.604Z,81.81
2018-03-28T14:36:04.954Z,81.94
2018-03-28T14:38:33.213Z,83.29
2018-03-28T14:41:01.501Z,83.89
2018-03-28T14:43:29.798Z,83.50
2018-03-28T14:45:58.197Z,85.74
2018-03-28T14:48:26.531Z,86.52
2018-03-28T14:50:54.913Z,86.33
2018-03-28T14:53:23.195Z,87.96
2018-03-28T14:55:51.566Z,87.71
2018-03-28T14:58:19.841Z,89.09
2018-03-28T15:00:48.133Z,88.92
2018-03-28T15:03:16.417Z,89.02
2018-03-28T15:05:44.744Z,89.17
2018-03-28T15:08:13.033Z,90.04
2018-03-28T15:10:42.132Z,89.85
2018-03-28T15:13:10.420Z,90.22
2018-03-28T15:15:39.468Z,90.64
2018-03-28T15:18:09.120Z,90.32
2018-03-28T15:20:38.172Z,90.89
2018-03-28T15:23:06.460Z,90.59
2018-03-28T15:25:34.836Z,90.27
2018-03-28T15:28:03.091Z,91.95
2018-03-28T15:30:31.414Z,92.55
2018-03-28T15:32:59.754Z,92.78
2018-03-28T15:35:28.054Z,93.43
2018-03-28T15:37:57.230Z,93.25
2018-03-28T15:40:25.613Z,93.67
2018-03-28T15:42:53.923Z,94.01
2018-03-28T15:45:22.195Z,93.63
2018-03-28T15:47:50.575Z,93.36
2018-03-28T15:50:18.848Z,94.17
2018-03-28T15:52:47.176Z,93.74
2018-03-28T15:55:15.494Z,92.84
2018-03-28T15:57:44.602Z,93.73
2018-03-28T16:00:13.255Z,94.19
2018-03-28T16:02:41.535Z,94.13
2018-03-28T16:05:10.639Z,94.26
2018-03-28T16:07:38.945Z,94.78
2018-03-28T16:10:07.217Z,94.68
2018-03-28T16:12:35.519Z,94.64
2018-03-28T16:15:03.797Z,95.57
2018-03-28T16:17:32.071Z,94.57
2018-03-28T16:20:00.382Z,94.66
2018-03-28T16:22:29.488Z,94.69
2018-03-28T16:24:57.761Z,94.69
2018-03-28T16:27:26.069Z,94.76
2018-03-28T16:29:54.354Z,94.92
2018-03-28T16:32:22.638Z,95.85
2018-03-28T16:34:50.937Z,94.43
2018-03-28T16:37:19.252Z,95.51
2018-03-28T16:39:47.540Z,95.88
2018-03-28T16:42:15.831Z,95.74
2018-03-28T16:44:44.122Z,96.43
2018-03-28T16:47:12.436Z,96.00
2018-03-28T16:49:41.462Z,96.65
2018-03-28T16:52:09.809Z,96.39
2018-03-28T16:54:38.107Z,96.12
2018-03-28T16:57:06.381Z,97.14
2018-03-28T16:59:34.675Z,96.98
2018-03-28T17:02:02.960Z,97.19
2018-03-28T17:04:31.248Z,97.07
2018-03-28T17:06:59.532Z,96.35
2018-03-28T17:09:27.822Z,96.03
2018-03-28T17:11:56.122Z,96.33
2018-03-28T17:14:24.473Z,96.96
2018-03-28T17:16:52.800Z,96.85
2018-03-28T17:19:21.053Z,96.28
2018-03-28T17:21:50.088Z,96.38
2018-03-28T17:24:18.377Z,96.79
2018-03-28T17:26:46.670Z,96.42
2018-03-28T17:29:14.961Z,95.48
2018-03-28T17:31:43.316Z,95.81
2018-03-28T17:34:11.645Z,95.82
2018-03-28T17:36:40.817Z,95.32
2018-03-28T17:39:09.140Z,95.75
2018-03-28T17:41:37.451Z,95.42
2018-03-28T17:44:05.749Z,95.60
2018-03-28T17:46:34.016Z,95.94
2018-03-28T17:49:02.319Z,95.25
2018-03-28T17:51:30.633Z,96.29
2018-03-28T17:54:00.588Z,96.29
2018-03-28T17:56:28.970Z,95.15
2018-03-28T17:58:57.281Z,95.78
2018-03-28T18:01:25.689Z,95.55
2018-03-28T18:03:54.357Z,95.43
2018-03-28T18:06:22.664Z,96.65
2018-03-28T18:08:50.968Z,95.63
2018-03-28T18:11:19.244Z,95.76
2018-03-28T18:13:47.566Z,95.29
2018-03-28T18:16:15.832Z,95.82
2018-03-28T18:18:44.156Z,95.89
2018-03-28T18:21:12.436Z,96.57
2018-03-28T18:23:40.727Z,94.07
2018-03-28T18:26:09.007Z,91.72
2018-03-28T18:28:37.340Z,92.94
2018-03-28T18:31:05.603Z,94.70
2018-03-28T18:33:33.849Z,95.65
2018-03-28T18:36:02.110Z,96.09
2018-03-28T18:38:31.135Z,96.82
2018-03-28T18:40:59.415Z,95.05
2018-03-28T18:43:27.686Z,93.96
2018-03-28T18:45:56.002Z,94.18
2018-03-28T18:48:24.296Z,94.61
2018-03-28T18:50:52.668Z,92.56
2018-03-28T18:53:21.711Z,92.75
2018-03-28T18:55:50.007Z,90.58
2018-03-28T18:58:18.298Z,90.62
2018-03-28T19:00:46.587Z,89.07
2018-03-28T19:03:14.904Z,89.59
2018-03-28T19:05:43.196Z,91.08
2018-03-28T19:08:11.464Z,89.31
2018-03-28T19:10:40.956Z,90.21
2018-03-28T19:13:09.234Z,90.84
2018-03-28T19:15:37.526Z,91.46
2018-03-28T19:18:06.548Z,92.22
2018-03-28T19:20:34.828Z,92.16
2018-03-28T19:23:04.652Z,90.70
2018-03-28T19:25:32.912Z,91.35
2018-03-28T19:28:01.237Z,91.01
2018-03-28T19:30:29.548Z,92.12
2018-03-28T19:32:57.930Z,91.28
2018-03-28T19:35:26.265Z,91.39
2018-03-28T19:37:54.547Z,91.08
2018-03-28T19:40:22.831Z,90.03
2018-03-28T19:42:51.101Z,91.11
2018-03-28T19:45:19.398Z,91.47
2018-03-28T19:47:47.677Z,91.49
2018-03-28T19:50:16.025Z,89.77
2018-03-28T19:52:45.695Z,91.28
2018-03-28T19:55:13.979Z,91.34
2018-03-28T19:57:42.348Z,91.44
2018-03-28T20:00:11.950Z,91.11
2018-03-28T20:02:41.096Z,91.26
2018-03-28T20:05:09.357Z,91.72
2018-03-28T20:07:38.400Z,92.46
2018-03-28T20:10:06.638Z,93.01
2018-03-28T20:12:35.657Z,92.89
2018-03-28T20:15:04.661Z,92.83
2018-03-28T20:17:33.812Z,93.39
2018-03-28T20:20:02.072Z,93.22
2018-03-28T20:22:31.205Z,93.42
2018-03-28T20:24:59.552Z,93.69
2018-03-28T20:27:28.597Z,94.21
2018-03-28T20:29:56.884Z,95.24
2018-03-28T20:32:25.263Z,94.97
2018-03-28T20:34:53.520Z,94.58
2018-03-28T20:37:22.637Z,94.30
2018-03-28T20:39:51.677Z,94.04
2018-03-28T20:42:19.980Z,92.55
2018-03-28T20:44:48.263Z,91.54
2018-03-28T20:47:16.545Z,88.28
2018-03-28T20:49:44.905Z,90.28
2018-03-28T20:52:14.831Z,88.99
2018-03-28T20:54:43.850Z,87.47
2018-03-28T20:57:13.599Z,86.25
2018-03-28T20:59:41.869Z,84.92
2018-03-28T21:02:10.198Z,85.42
2018-03-28T21:04:38.469Z,85.72
2018-03-28T21:07:06.714Z,83.93
2018-03-28T21:09:35.020Z,84.35
2018-03-28T21:12:04.143Z,85.51
2018-03-28T21:14:32.431Z,84.86
2018-03-28T21:17:01.538Z,84.87
2018-03-28T21:19:31.000Z,85.33
2018-03-28T21:24:30.431Z,85.95
2018-03-28T21:26:58.710Z,86.24
2018-03-28T21:29:27.062Z,87.33
2018-03-28T21:31:56.084Z,87.65
2018-03-28T21:34:24.424Z,87.53
2018-03-28T21:36:52.685Z,88.49
2018-03-28T21:39:21.058Z,88.72
2018-03-28T21:41:49.348Z,90.23
2018-03-28T21:44:17.612Z,90.50
2018-03-28T21:46:46.631Z,90.46
2018-03-28T21:49:15.691Z,91.56
2018-03-28T21:51:44.251Z,92.95
2018-03-28T21:54:12.553Z,94.18
2018-03-28T21:56:40.812Z,93.68
2018-03-28T21:59:09.949Z,94.51
2018-03-28T22:01:38.225Z,94.57
2018-03-28T22:04:06.491Z,93.62
2018-03-28T22:06:36.135Z,91.55
2018-03-28T22:09:04.399Z,88.68
2018-03-28T22:11:33.441Z,87.21
2018-03-28T22:14:01.723Z,86.50
2018-03-28T22:16:30.023Z,87.27
2018-03-28T22:18:58.302Z,88.64
2018-03-28T22:21:26.602Z,86.99
2018-03-28T22:23:54.882Z,86.95
2018-03-28T22:26:23.188Z,86.91
2018-03-28T22:28:51.447Z,86.12
2018-03-28T22:31:20.567Z,85.45
2018-03-28T22:33:48.812Z,85.36
2018-03-28T22:36:17.158Z,82.47
2018-03-28T22:38:45.432Z,82.74
2018-03-28T22:41:13.734Z,81.60
2018-03-28T22:43:42.716Z,79.57
2018-03-28T22:46:11.841Z,77.89
2018-03-28T22:48:40.101Z,76.29
2018-03-28T22:51:08.426Z,76.75
2018-03-28T22:53:36.728Z,78.42
2018-03-28T22:56:04.991Z,78.16
2018-03-28T22:58:34.117Z,77.16
2018-03-28T23:01:02.420Z,77.72
2018-03-28T23:03:30.693Z,77.80
2018-03-28T23:05:58.951Z,77.44
2018-03-28T23:08:27.289Z,78.61
2018-03-28T23:10:55.736Z,79.20
2018-03-28T23:13:24.811Z,79.69
2018-03-28T23:15:53.157Z,78.33
2018-03-28T23:18:21.454Z,78.33
2018-03-28T23:20:49.734Z,78.79
2018-03-28T23:23:18.036Z,78.90
2018-03-28T23:25:46.285Z,78.83
2018-03-28T23:28:14.738Z,78.96
2018-03-28T23:30:42.984Z,79.17
2018-03-28T23:33:12.064Z,78.33
2018-03-28T23:35:40.305Z,78.53
2018-03-28T23:38:08.608Z,78.44
2018-03-28T23:40:36.840Z,78.44
2018-03-28T23:43:05.862Z,78.58
2018-03-28T23:45:34.871Z,78.45
2018-03-28T23:48:03.907Z,78.61
2018-03-28T23:50:32.161Z,79.43
2018-03-28T23:53:01.198Z,79.55
2018-03-28T23:55:29.468Z,77.97
2018-03-28T23:57:58.527Z,78.29
